sensor_id;sensor_type;location;lat;lon;timestamp;P1;durP1;ratioP1;P2;durP2;ratioP2
47635;SDS011;33364;50.766;15.338;2022-08-19T00:01:30;10.63;;;5.40;;
47635;SDS011;33364;50.766;15.338;2022-08-19T00:03:57;9.38;;;5.82;;
47635;SDS011;33364;50.766;15.338;2022-08-19T00:06:25;11.30;;;6.53;;
47635;SDS011;33364;50.766;15.338;2022-08-19T00:08:52;8.02;;;5.22;;
47635;SDS011;33364;50.766;15.338;2022-08-19T00:11:17;7.78;;;5.90;;
47635;SDS011;33364;50.766;15.338;2022-08-19T00:13:43;8.85;;;7.10;;
47635;SDS011;33364;50.766;15.338;2022-08-19T00:16:10;8.45;;;5.70;;
47635;SDS011;33364;50.766;15.338;2022-08-19T00:18:36;11.48;;;6.45;;
47635;SDS011;33364;50.766;15.338;2022-08-19T00:21:02;9.90;;;6.45;;
47635;SDS011;33364;50.766;15.338;2022-08-19T00:23:28;7.78;;;5.95;;
47635;SDS011;33364;50.766;15.338;2022-08-19T00:25:54;10.30;;;6.60;;
47635;SDS011;33364;50.766;15.338;2022-08-19T00:28:20;11.27;;;7.30;;
47635;SDS011;33364;50.766;15.338;2022-08-19T00:30:45;10.98;;;7.22;;
47635;SDS011;33364;50.766;15.338;2022-08-19T00:33:11;8.10;;;6.25;;
47635;SDS011;33364;50.766;15.338;2022-08-19T00:35:38;9.45;;;6.60;;
47635;SDS011;33364;50.766;15.338;2022-08-19T00:38:04;8.48;;;6.70;;
47635;SDS011;33364;50.766;15.338;2022-08-19T00:40:32;10.88;;;7.63;;
47635;SDS011;33364;50.766;15.338;2022-08-19T00:42:57;10.85;;;7.72;;
47635;SDS011;33364;50.766;15.338;2022-08-19T00:45:25;10.00;;;6.53;;
47635;SDS011;33364;50.766;15.338;2022-08-19T00:47:52;9.70;;;7.35;;
47635;SDS011;33364;50.766;15.338;2022-08-19T00:50:18;10.30;;;7.97;;
47635;SDS011;33364;50.766;15.338;2022-08-19T00:52:46;13.63;;;7.32;;
47635;SDS011;33364;50.766;15.338;2022-08-19T00:55:16;11.57;;;7.72;;
47635;SDS011;33364;50.766;15.338;2022-08-19T00:57:46;9.07;;;7.25;;
47635;SDS011;33364;50.766;15.338;2022-08-19T01:00:17;8.35;;;7.18;;
47635;SDS011;33364;50.766;15.338;2022-08-19T01:02:43;10.32;;;7.63;;
47635;SDS011;33364;50.766;15.338;2022-08-19T01:05:11;10.93;;;7.47;;
47635;SDS011;33364;50.766;15.338;2022-08-19T01:07:41;8.65;;;7.50;;
47635;SDS011;33364;50.766;15.338;2022-08-19T01:10:08;12.25;;;7.78;;
47635;SDS011;33364;50.766;15.338;2022-08-19T01:12:37;9.18;;;7.25;;
47635;SDS011;33364;50.766;15.338;2022-08-19T01:15:03;10.25;;;7.32;;
47635;SDS011;33364;50.766;15.338;2022-08-19T01:17:32;8.00;;;7.20;;
47635;SDS011;33364;50.766;15.338;2022-08-19T01:19:58;8.90;;;7.30;;
47635;SDS011;33364;50.766;15.338;2022-08-19T01:22:58;11.05;;;7.60;;
47635;SDS011;33364;50.766;15.338;2022-08-19T01:25:20;11.35;;;7.85;;
47635;SDS011;33364;50.766;15.338;2022-08-19T01:27:49;9.45;;;8.15;;
47635;SDS011;33364;50.766;15.338;2022-08-19T01:30:26;9.23;;;7.85;;
47635;SDS011;33364;50.766;15.338;2022-08-19T01:32:57;12.13;;;8.02;;
47635;SDS011;33364;50.766;15.338;2022-08-19T01:35:25;10.85;;;7.70;;
47635;SDS011;33364;50.766;15.338;2022-08-19T01:37:58;11.20;;;7.97;;
47635;SDS011;33364;50.766;15.338;2022-08-19T01:40:36;9.20;;;7.75;;
47635;SDS011;33364;50.766;15.338;2022-08-19T01:43:04;10.85;;;7.30;;
47635;SDS011;33364;50.766;15.338;2022-08-19T01:45:31;14.77;;;7.55;;
47635;SDS011;33364;50.766;15.338;2022-08-19T01:47:59;9.63;;;7.22;;
47635;SDS011;33364;50.766;15.338;2022-08-19T01:50:24;10.57;;;7.93;;
47635;SDS011;33364;50.766;15.338;2022-08-19T01:52:50;9.90;;;7.38;;
47635;SDS011;33364;50.766;15.338;2022-08-19T01:55:18;10.18;;;7.32;;
47635;SDS011;33364;50.766;15.338;2022-08-19T01:57:50;9.65;;;7.32;;
47635;SDS011;33364;50.766;15.338;2022-08-19T02:00:20;8.55;;;7.10;;
47635;SDS011;33364;50.766;15.338;2022-08-19T02:02:48;8.27;;;7.30;;
47635;SDS011;33364;50.766;15.338;2022-08-19T02:05:13;14.32;;;7.75;;
47635;SDS011;33364;50.766;15.338;2022-08-19T02:07:43;12.85;;;8.20;;
47635;SDS011;33364;50.766;15.338;2022-08-19T02:10:11;8.90;;;6.97;;
47635;SDS011;33364;50.766;15.338;2022-08-19T02:12:39;10.60;;;7.28;;
47635;SDS011;33364;50.766;15.338;2022-08-19T02:15:05;10.77;;;6.60;;
47635;SDS011;33364;50.766;15.338;2022-08-19T02:17:33;9.07;;;6.20;;
47635;SDS011;33364;50.766;15.338;2022-08-19T02:19:59;8.63;;;6.75;;
47635;SDS011;33364;50.766;15.338;2022-08-19T02:22:25;11.35;;;8.02;;
47635;SDS011;33364;50.766;15.338;2022-08-19T02:24:52;8.60;;;5.75;;
47635;SDS011;33364;50.766;15.338;2022-08-19T02:27:18;7.30;;;6.50;;
47635;SDS011;33364;50.766;15.338;2022-08-19T02:29:45;8.63;;;5.90;;
47635;SDS011;33364;50.766;15.338;2022-08-19T02:32:12;7.68;;;6.10;;
47635;SDS011;33364;50.766;15.338;2022-08-19T02:34:38;13.00;;;7.53;;
47635;SDS011;33364;50.766;15.338;2022-08-19T02:37:04;9.18;;;6.78;;
47635;SDS011;33364;50.766;15.338;2022-08-19T02:39:30;8.90;;;6.55;;
47635;SDS011;33364;50.766;15.338;2022-08-19T02:41:55;10.95;;;5.82;;
47635;SDS011;33364;50.766;15.338;2022-08-19T02:44:24;8.80;;;6.22;;
47635;SDS011;33364;50.766;15.338;2022-08-19T02:46:49;17.05;;;10.18;;
47635;SDS011;33364;50.766;15.338;2022-08-19T02:49:15;10.82;;;7.43;;
47635;SDS011;33364;50.766;15.338;2022-08-19T02:51:42;11.60;;;5.68;;
47635;SDS011;33364;50.766;15.338;2022-08-19T02:54:09;11.90;;;6.28;;
47635;SDS011;33364;50.766;15.338;2022-08-19T02:56:37;6.63;;;5.93;;
47635;SDS011;33364;50.766;15.338;2022-08-19T02:59:05;8.73;;;6.20;;
47635;SDS011;33364;50.766;15.338;2022-08-19T03:01:33;8.55;;;5.20;;
47635;SDS011;33364;50.766;15.338;2022-08-19T03:04:00;12.40;;;6.47;;
47635;SDS011;33364;50.766;15.338;2022-08-19T03:06:28;12.75;;;7.45;;
47635;SDS011;33364;50.766;15.338;2022-08-19T03:08:54;8.75;;;6.00;;
47635;SDS011;33364;50.766;15.338;2022-08-19T03:11:21;8.52;;;5.80;;
47635;SDS011;33364;50.766;15.338;2022-08-19T03:13:49;9.05;;;5.40;;
47635;SDS011;33364;50.766;15.338;2022-08-19T03:16:16;9.32;;;6.40;;
47635;SDS011;33364;50.766;15.338;2022-08-19T03:18:45;9.60;;;6.22;;
47635;SDS011;33364;50.766;15.338;2022-08-19T03:21:18;13.23;;;7.07;;
47635;SDS011;33364;50.766;15.338;2022-08-19T03:23:49;8.93;;;5.35;;
47635;SDS011;33364;50.766;15.338;2022-08-19T03:26:19;10.15;;;6.57;;
47635;SDS011;33364;50.766;15.338;2022-08-19T03:28:44;7.97;;;6.28;;
47635;SDS011;33364;50.766;15.338;2022-08-19T03:31:15;9.82;;;5.20;;
47635;SDS011;33364;50.766;15.338;2022-08-19T03:33:44;9.13;;;5.55;;
47635;SDS011;33364;50.766;15.338;2022-08-19T03:36:12;9.90;;;5.43;;
47635;SDS011;33364;50.766;15.338;2022-08-19T03:38:41;10.02;;;5.15;;
47635;SDS011;33364;50.766;15.338;2022-08-19T03:41:11;9.52;;;5.38;;
47635;SDS011;33364;50.766;15.338;2022-08-19T03:43:40;7.85;;;4.95;;
47635;SDS011;33364;50.766;15.338;2022-08-19T03:46:09;8.35;;;5.40;;
47635;SDS011;33364;50.766;15.338;2022-08-19T03:48:38;6.25;;;5.30;;
47635;SDS011;33364;50.766;15.338;2022-08-19T03:51:05;8.57;;;5.75;;
47635;SDS011;33364;50.766;15.338;2022-08-19T03:53:33;8.80;;;5.07;;
47635;SDS011;33364;50.766;15.338;2022-08-19T03:55:59;7.45;;;5.20;;
47635;SDS011;33364;50.766;15.338;2022-08-19T03:58:27;6.53;;;4.90;;
47635;SDS011;33364;50.766;15.338;2022-08-19T04:00:54;8.35;;;5.30;;
47635;SDS011;33364;50.766;15.338;2022-08-19T04:03:22;8.38;;;5.30;;
47635;SDS011;33364;50.766;15.338;2022-08-19T04:05:49;5.25;;;4.75;;
47635;SDS011;33364;50.766;15.338;2022-08-19T04:08:15;8.13;;;4.80;;
47635;SDS011;33364;50.766;15.338;2022-08-19T04:10:45;8.02;;;5.13;;
47635;SDS011;33364;50.766;15.338;2022-08-19T04:13:15;7.22;;;4.30;;
47635;SDS011;33364;50.766;15.338;2022-08-19T04:15:42;6.80;;;4.78;;
47635;SDS011;33364;50.766;15.338;2022-08-19T04:18:10;8.43;;;4.85;;
47635;SDS011;33364;50.766;15.338;2022-08-19T04:20:43;6.88;;;4.28;;
47635;SDS011;33364;50.766;15.338;2022-08-19T04:23:10;8.80;;;4.80;;
47635;SDS011;33364;50.766;15.338;2022-08-19T04:25:40;7.93;;;4.68;;
47635;SDS011;33364;50.766;15.338;2022-08-19T04:28:08;7.63;;;5.10;;
47635;SDS011;33364;50.766;15.338;2022-08-19T04:30:39;8.27;;;4.63;;
47635;SDS011;33364;50.766;15.338;2022-08-19T04:33:10;11.13;;;6.65;;
47635;SDS011;33364;50.766;15.338;2022-08-19T04:35:38;6.55;;;4.55;;
47635;SDS011;33364;50.766;15.338;2022-08-19T04:38:05;9.50;;;5.13;;
47635;SDS011;33364;50.766;15.338;2022-08-19T04:40:32;9.85;;;4.30;;
47635;SDS011;33364;50.766;15.338;2022-08-19T04:43:17;12.27;;;5.28;;
47635;SDS011;33364;50.766;15.338;2022-08-19T04:45:43;7.00;;;4.93;;
47635;SDS011;33364;50.766;15.338;2022-08-19T04:48:09;8.75;;;5.10;;
47635;SDS011;33364;50.766;15.338;2022-08-19T04:50:36;7.10;;;4.80;;
47635;SDS011;33364;50.766;15.338;2022-08-19T04:53:01;9.15;;;4.18;;
47635;SDS011;33364;50.766;15.338;2022-08-19T04:55:28;8.40;;;4.57;;
47635;SDS011;33364;50.766;15.338;2022-08-19T04:57:54;9.77;;;5.35;;
47635;SDS011;33364;50.766;15.338;2022-08-19T05:00:20;7.65;;;4.90;;
47635;SDS011;33364;50.766;15.338;2022-08-19T05:02:45;5.88;;;4.13;;
47635;SDS011;33364;50.766;15.338;2022-08-19T05:05:11;9.93;;;4.30;;
47635;SDS011;33364;50.766;15.338;2022-08-19T05:07:37;9.52;;;4.63;;
47635;SDS011;33364;50.766;15.338;2022-08-19T05:10:04;9.88;;;4.45;;
47635;SDS011;33364;50.766;15.338;2022-08-19T05:12:30;8.10;;;4.47;;
47635;SDS011;33364;50.766;15.338;2022-08-19T05:14:57;6.97;;;4.30;;
47635;SDS011;33364;50.766;15.338;2022-08-19T05:17:23;13.57;;;4.90;;
47635;SDS011;33364;50.766;15.338;2022-08-19T05:19:49;10.73;;;4.53;;
47635;SDS011;33364;50.766;15.338;2022-08-19T05:22:34;7.53;;;4.30;;
47635;SDS011;33364;50.766;15.338;2022-08-19T05:25:07;7.57;;;4.70;;
47635;SDS011;33364;50.766;15.338;2022-08-19T05:27:34;8.45;;;4.43;;
47635;SDS011;33364;50.766;15.338;2022-08-19T05:30:00;7.32;;;4.72;;
47635;SDS011;33364;50.766;15.338;2022-08-19T05:32:26;6.45;;;4.03;;
47635;SDS011;33364;50.766;15.338;2022-08-19T05:34:52;7.55;;;4.85;;
47635;SDS011;33364;50.766;15.338;2022-08-19T05:37:18;11.43;;;5.15;;
47635;SDS011;33364;50.766;15.338;2022-08-19T05:39:43;8.25;;;4.45;;
47635;SDS011;33364;50.766;15.338;2022-08-19T05:42:10;6.95;;;4.13;;
47635;SDS011;33364;50.766;15.338;2022-08-19T05:44:38;8.20;;;5.13;;
47635;SDS011;33364;50.766;15.338;2022-08-19T05:47:08;9.70;;;5.57;;
47635;SDS011;33364;50.766;15.338;2022-08-19T05:49:34;11.27;;;5.38;;
47635;SDS011;33364;50.766;15.338;2022-08-19T05:52:05;8.15;;;5.63;;
47635;SDS011;33364;50.766;15.338;2022-08-19T05:54:33;13.88;;;6.32;;
47635;SDS011;33364;50.766;15.338;2022-08-19T05:57:01;9.10;;;5.80;;
47635;SDS011;33364;50.766;15.338;2022-08-19T05:59:28;13.02;;;5.53;;
47635;SDS011;33364;50.766;15.338;2022-08-19T06:01:53;11.13;;;6.10;;
47635;SDS011;33364;50.766;15.338;2022-08-19T06:04:20;13.73;;;6.28;;
47635;SDS011;33364;50.766;15.338;2022-08-19T06:06:47;12.52;;;5.80;;
47635;SDS011;33364;50.766;15.338;2022-08-19T06:09:16;12.77;;;5.88;;
47635;SDS011;33364;50.766;15.338;2022-08-19T06:11:43;9.15;;;5.88;;
47635;SDS011;33364;50.766;15.338;2022-08-19T06:14:19;11.52;;;6.78;;
47635;SDS011;33364;50.766;15.338;2022-08-19T06:16:48;9.82;;;7.15;;
47635;SDS011;33364;50.766;15.338;2022-08-19T06:19:16;16.63;;;7.72;;
47635;SDS011;33364;50.766;15.338;2022-08-19T06:21:44;9.25;;;6.90;;
47635;SDS011;33364;50.766;15.338;2022-08-19T06:24:12;10.02;;;6.30;;
47635;SDS011;33364;50.766;15.338;2022-08-19T06:26:42;11.45;;;7.00;;
47635;SDS011;33364;50.766;15.338;2022-08-19T06:29:10;14.23;;;7.30;;
47635;SDS011;33364;50.766;15.338;2022-08-19T06:31:36;14.13;;;6.70;;
47635;SDS011;33364;50.766;15.338;2022-08-19T06:34:04;12.18;;;6.68;;
47635;SDS011;33364;50.766;15.338;2022-08-19T06:36:32;10.23;;;6.38;;
47635;SDS011;33364;50.766;15.338;2022-08-19T06:39:01;10.30;;;7.20;;
47635;SDS011;33364;50.766;15.338;2022-08-19T06:41:34;12.77;;;7.30;;
47635;SDS011;33364;50.766;15.338;2022-08-19T06:44:20;8.73;;;6.85;;
47635;SDS011;33364;50.766;15.338;2022-08-19T06:46:56;11.00;;;8.02;;
47635;SDS011;33364;50.766;15.338;2022-08-19T06:49:28;12.00;;;9.02;;
47635;SDS011;33364;50.766;15.338;2022-08-19T06:52:04;11.68;;;8.77;;
47635;SDS011;33364;50.766;15.338;2022-08-19T06:54:35;16.25;;;8.25;;
47635;SDS011;33364;50.766;15.338;2022-08-19T06:57:12;13.07;;;9.07;;
47635;SDS011;33364;50.766;15.338;2022-08-19T06:59:43;14.23;;;8.52;;
47635;SDS011;33364;50.766;15.338;2022-08-19T07:02:17;10.48;;;8.38;;
47635;SDS011;33364;50.766;15.338;2022-08-19T07:04:48;12.32;;;9.32;;
47635;SDS011;33364;50.766;15.338;2022-08-19T07:07:20;16.20;;;9.45;;
47635;SDS011;33364;50.766;15.338;2022-08-19T07:09:52;14.02;;;8.77;;
47635;SDS011;33364;50.766;15.338;2022-08-19T07:12:19;19.52;;;10.60;;
47635;SDS011;33364;50.766;15.338;2022-08-19T07:14:44;12.73;;;9.98;;
47635;SDS011;33364;50.766;15.338;2022-08-19T07:17:11;11.50;;;9.32;;
47635;SDS011;33364;50.766;15.338;2022-08-19T07:19:37;18.65;;;11.32;;
47635;SDS011;33364;50.766;15.338;2022-08-19T07:22:05;13.52;;;10.57;;
47635;SDS011;33364;50.766;15.338;2022-08-19T07:24:33;14.38;;;11.52;;
47635;SDS011;33364;50.766;15.338;2022-08-19T07:27:00;12.82;;;10.95;;
47635;SDS011;33364;50.766;15.338;2022-08-19T07:29:32;16.40;;;10.63;;
47635;SDS011;33364;50.766;15.338;2022-08-19T07:32:00;14.57;;;11.02;;
47635;SDS011;33364;50.766;15.338;2022-08-19T07:34:27;13.55;;;12.15;;
47635;SDS011;33364;50.766;15.338;2022-08-19T07:36:54;19.05;;;12.88;;
47635;SDS011;33364;50.766;15.338;2022-08-19T07:39:23;15.50;;;12.75;;
47635;SDS011;33364;50.766;15.338;2022-08-19T07:41:51;18.23;;;14.23;;
47635;SDS011;33364;50.766;15.338;2022-08-19T07:44:18;15.00;;;12.35;;
47635;SDS011;33364;50.766;15.338;2022-08-19T07:46:47;17.33;;;12.45;;
47635;SDS011;33364;50.766;15.338;2022-08-19T07:49:14;19.77;;;15.15;;
47635;SDS011;33364;50.766;15.338;2022-08-19T07:51:48;14.82;;;13.32;;
47635;SDS011;33364;50.766;15.338;2022-08-19T07:54:23;18.65;;;13.55;;
47635;SDS011;33364;50.766;15.338;2022-08-19T07:56:51;19.17;;;13.35;;
47635;SDS011;33364;50.766;15.338;2022-08-19T07:59:18;15.30;;;13.40;;
47635;SDS011;33364;50.766;15.338;2022-08-19T08:01:46;17.63;;;13.23;;
47635;SDS011;33364;50.766;15.338;2022-08-19T08:04:12;16.40;;;14.00;;
47635;SDS011;33364;50.766;15.338;2022-08-19T08:06:57;17.55;;;13.48;;
47635;SDS011;33364;50.766;15.338;2022-08-19T08:09:42;16.05;;;12.80;;
47635;SDS011;33364;50.766;15.338;2022-08-19T08:12:10;20.30;;;13.75;;
47635;SDS011;33364;50.766;15.338;2022-08-19T08:15:09;16.52;;;12.80;;
47635;SDS011;33364;50.766;15.338;2022-08-19T08:17:41;16.38;;;14.15;;
47635;SDS011;33364;50.766;15.338;2022-08-19T08:20:13;16.25;;;14.65;;
47635;SDS011;33364;50.766;15.338;2022-08-19T08:22:50;17.17;;;14.75;;
47635;SDS011;33364;50.766;15.338;2022-08-19T08:25:39;15.65;;;14.15;;
47635;SDS011;33364;50.766;15.338;2022-08-19T08:28:14;17.15;;;14.40;;
47635;SDS011;33364;50.766;15.338;2022-08-19T08:30:45;17.85;;;14.35;;
47635;SDS011;33364;50.766;15.338;2022-08-19T08:33:24;14.70;;;11.60;;
47635;SDS011;33364;50.766;15.338;2022-08-19T08:35:58;16.75;;;13.38;;
47635;SDS011;33364;50.766;15.338;2022-08-19T08:38:41;15.93;;;13.55;;
47635;SDS011;33364;50.766;15.338;2022-08-19T08:44:18;21.60;;;15.50;;
47635;SDS011;33364;50.766;15.338;2022-08-19T08:47:00;18.52;;;15.25;;
47635;SDS011;33364;50.766;15.338;2022-08-19T08:49:45;17.20;;;14.73;;
47635;SDS011;33364;50.766;15.338;2022-08-19T08:52:33;16.27;;;14.57;;
47635;SDS011;33364;50.766;15.338;2022-08-19T08:55:08;17.98;;;15.00;;
47635;SDS011;33364;50.766;15.338;2022-08-19T09:00:17;16.10;;;12.93;;
47635;SDS011;33364;50.766;15.338;2022-08-19T09:02:46;15.55;;;13.15;;
47635;SDS011;33364;50.766;15.338;2022-08-19T09:05:11;26.60;;;14.68;;
47635;SDS011;33364;50.766;15.338;2022-08-19T09:07:59;19.88;;;13.90;;
47635;SDS011;33364;50.766;15.338;2022-08-19T09:10:47;15.98;;;14.25;;
47635;SDS011;33364;50.766;15.338;2022-08-19T09:13:20;16.25;;;14.13;;
47635;SDS011;33364;50.766;15.338;2022-08-19T09:15:52;17.50;;;15.15;;
47635;SDS011;33364;50.766;15.338;2022-08-19T09:18:22;18.02;;;14.23;;
47635;SDS011;33364;50.766;15.338;2022-08-19T09:20:48;16.13;;;14.52;;
47635;SDS011;33364;50.766;15.338;2022-08-19T09:23:20;16.52;;;14.27;;
47635;SDS011;33364;50.766;15.338;2022-08-19T09:25:58;19.55;;;13.68;;
47635;SDS011;33364;50.766;15.338;2022-08-19T09:28:28;18.27;;;12.73;;
47635;SDS011;33364;50.766;15.338;2022-08-19T09:31:02;15.32;;;13.77;;
47635;SDS011;33364;50.766;15.338;2022-08-19T09:33:37;18.27;;;13.43;;
47635;SDS011;33364;50.766;15.338;2022-08-19T09:36:11;15.40;;;13.27;;
47635;SDS011;33364;50.766;15.338;2022-08-19T09:38:45;14.85;;;13.32;;
47635;SDS011;33364;50.766;15.338;2022-08-19T09:41:21;16.45;;;13.93;;
47635;SDS011;33364;50.766;15.338;2022-08-19T09:43:52;16.60;;;13.05;;
47635;SDS011;33364;50.766;15.338;2022-08-19T09:46:26;15.98;;;13.48;;
47635;SDS011;33364;50.766;15.338;2022-08-19T09:48:58;15.25;;;13.65;;
47635;SDS011;33364;50.766;15.338;2022-08-19T09:51:25;18.02;;;13.88;;
47635;SDS011;33364;50.766;15.338;2022-08-19T09:53:53;16.10;;;14.13;;
47635;SDS011;33364;50.766;15.338;2022-08-19T09:56:20;15.43;;;13.75;;
47635;SDS011;33364;50.766;15.338;2022-08-19T09:58:48;17.27;;;14.43;;
47635;SDS011;33364;50.766;15.338;2022-08-19T10:01:21;18.30;;;13.95;;
47635;SDS011;33364;50.766;15.338;2022-08-19T10:06:20;16.90;;;14.25;;
47635;SDS011;33364;50.766;15.338;2022-08-19T10:08:48;18.92;;;13.70;;
47635;SDS011;33364;50.766;15.338;2022-08-19T10:11:15;16.70;;;14.63;;
47635;SDS011;33364;50.766;15.338;2022-08-19T10:13:42;15.48;;;13.88;;
47635;SDS011;33364;50.766;15.338;2022-08-19T10:16:12;16.52;;;13.10;;
47635;SDS011;33364;50.766;15.338;2022-08-19T10:18:40;15.38;;;13.85;;
47635;SDS011;33364;50.766;15.338;2022-08-19T10:21:15;17.42;;;12.98;;
47635;SDS011;33364;50.766;15.338;2022-08-19T10:23:45;15.95;;;14.35;;
47635;SDS011;33364;50.766;15.338;2022-08-19T10:26:14;16.40;;;14.05;;
47635;SDS011;33364;50.766;15.338;2022-08-19T10:28:43;14.90;;;13.40;;
47635;SDS011;33364;50.766;15.338;2022-08-19T10:31:10;18.05;;;14.75;;
47635;SDS011;33364;50.766;15.338;2022-08-19T10:33:38;17.05;;;15.27;;
47635;SDS011;33364;50.766;15.338;2022-08-19T10:36:09;19.02;;;15.63;;
47635;SDS011;33364;50.766;15.338;2022-08-19T10:38:40;16.13;;;14.43;;
47635;SDS011;33364;50.766;15.338;2022-08-19T10:41:07;17.15;;;15.35;;
47635;SDS011;33364;50.766;15.338;2022-08-19T10:43:35;20.30;;;15.57;;
47635;SDS011;33364;50.766;15.338;2022-08-19T10:46:04;19.77;;;14.77;;
47635;SDS011;33364;50.766;15.338;2022-08-19T10:48:31;16.50;;;13.15;;
47635;SDS011;33364;50.766;15.338;2022-08-19T10:50:58;16.95;;;14.63;;
47635;SDS011;33364;50.766;15.338;2022-08-19T10:53:42;16.73;;;14.02;;
47635;SDS011;33364;50.766;15.338;2022-08-19T10:56:08;16.13;;;14.43;;
47635;SDS011;33364;50.766;15.338;2022-08-19T10:58:52;20.75;;;14.10;;
47635;SDS011;33364;50.766;15.338;2022-08-19T11:01:18;16.40;;;14.70;;
47635;SDS011;33364;50.766;15.338;2022-08-19T11:03:44;17.77;;;14.07;;
47635;SDS011;33364;50.766;15.338;2022-08-19T11:06:10;15.57;;;13.90;;
47635;SDS011;33364;50.766;15.338;2022-08-19T11:08:36;20.92;;;14.77;;
47635;SDS011;33364;50.766;15.338;2022-08-19T11:11:03;16.63;;;14.35;;
47635;SDS011;33364;50.766;15.338;2022-08-19T11:13:31;17.88;;;14.60;;
47635;SDS011;33364;50.766;15.338;2022-08-19T11:16:03;18.33;;;14.40;;
47635;SDS011;33364;50.766;15.338;2022-08-19T11:18:35;15.23;;;13.65;;
47635;SDS011;33364;50.766;15.338;2022-08-19T11:21:06;16.50;;;13.98;;
47635;SDS011;33364;50.766;15.338;2022-08-19T11:23:33;15.40;;;13.90;;
47635;SDS011;33364;50.766;15.338;2022-08-19T11:26:00;16.08;;;14.48;;
47635;SDS011;33364;50.766;15.338;2022-08-19T11:28:26;17.05;;;14.68;;
47635;SDS011;33364;50.766;15.338;2022-08-19T11:30:52;20.48;;;14.10;;
47635;SDS011;33364;50.766;15.338;2022-08-19T11:33:17;17.42;;;14.27;;
47635;SDS011;33364;50.766;15.338;2022-08-19T11:35:44;20.85;;;14.77;;
47635;SDS011;33364;50.766;15.338;2022-08-19T11:38:10;20.52;;;14.20;;
47635;SDS011;33364;50.766;15.338;2022-08-19T11:40:36;17.17;;;13.02;;
47635;SDS011;33364;50.766;15.338;2022-08-19T11:43:02;18.25;;;13.35;;
47635;SDS011;33364;50.766;15.338;2022-08-19T11:45:28;16.65;;;13.63;;
47635;SDS011;33364;50.766;15.338;2022-08-19T11:47:55;14.77;;;13.40;;
47635;SDS011;33364;50.766;15.338;2022-08-19T11:50:21;16.13;;;13.68;;
47635;SDS011;33364;50.766;15.338;2022-08-19T11:52:48;20.88;;;11.88;;
47635;SDS011;33364;50.766;15.338;2022-08-19T11:55:15;16.15;;;14.27;;
47635;SDS011;33364;50.766;15.338;2022-08-19T11:57:40;17.50;;;14.70;;
47635;SDS011;33364;50.766;15.338;2022-08-19T12:00:07;19.65;;;14.13;;
47635;SDS011;33364;50.766;15.338;2022-08-19T12:02:36;14.80;;;13.23;;
47635;SDS011;33364;50.766;15.338;2022-08-19T12:05:01;18.70;;;13.48;;
47635;SDS011;33364;50.766;15.338;2022-08-19T12:07:28;15.48;;;13.85;;
47635;SDS011;33364;50.766;15.338;2022-08-19T12:09:57;16.33;;;14.68;;
47635;SDS011;33364;50.766;15.338;2022-08-19T12:12:22;15.85;;;12.60;;
47635;SDS011;33364;50.766;15.338;2022-08-19T12:14:49;15.18;;;13.60;;
47635;SDS011;33364;50.766;15.338;2022-08-19T12:17:22;14.07;;;12.68;;
47635;SDS011;33364;50.766;15.338;2022-08-19T12:19:48;15.23;;;13.35;;
47635;SDS011;33364;50.766;15.338;2022-08-19T12:22:14;17.45;;;12.98;;
47635;SDS011;33364;50.766;15.338;2022-08-19T12:24:40;13.82;;;12.32;;
47635;SDS011;33364;50.766;15.338;2022-08-19T12:27:05;14.77;;;13.27;;
47635;SDS011;33364;50.766;15.338;2022-08-19T12:29:31;13.85;;;12.25;;
47635;SDS011;33364;50.766;15.338;2022-08-19T12:31:58;15.35;;;12.48;;
47635;SDS011;33364;50.766;15.338;2022-08-19T12:34:30;16.70;;;13.18;;
47635;SDS011;33364;50.766;15.338;2022-08-19T12:36:57;16.58;;;13.15;;
47635;SDS011;33364;50.766;15.338;2022-08-19T12:39:24;16.48;;;13.27;;
47635;SDS011;33364;50.766;15.338;2022-08-19T12:41:50;16.67;;;13.30;;
47635;SDS011;33364;50.766;15.338;2022-08-19T12:44:16;15.23;;;12.55;;
47635;SDS011;33364;50.766;15.338;2022-08-19T12:46:42;14.00;;;12.52;;
47635;SDS011;33364;50.766;15.338;2022-08-19T12:49:07;15.40;;;13.90;;
47635;SDS011;33364;50.766;15.338;2022-08-19T12:51:33;18.42;;;12.57;;
47635;SDS011;33364;50.766;15.338;2022-08-19T12:53:59;13.07;;;11.77;;
47635;SDS011;33364;50.766;15.338;2022-08-19T12:56:24;17.80;;;12.70;;
47635;SDS011;33364;50.766;15.338;2022-08-19T12:58:50;13.40;;;12.10;;
47635;SDS011;33364;50.766;15.338;2022-08-19T13:01:17;17.80;;;13.13;;
47635;SDS011;33364;50.766;15.338;2022-08-19T13:03:46;17.40;;;11.57;;
47635;SDS011;33364;50.766;15.338;2022-08-19T13:06:12;20.35;;;12.38;;
47635;SDS011;33364;50.766;15.338;2022-08-19T13:08:39;14.70;;;11.73;;
47635;SDS011;33364;50.766;15.338;2022-08-19T13:11:12;19.40;;;12.95;;
47635;SDS011;33364;50.766;15.338;2022-08-19T13:13:40;14.23;;;12.82;;
47635;SDS011;33364;50.766;15.338;2022-08-19T13:18:39;14.68;;;11.85;;
47635;SDS011;33364;50.766;15.338;2022-08-19T13:21:07;14.82;;;13.32;;
47635;SDS011;33364;50.766;15.338;2022-08-19T13:23:34;16.25;;;12.63;;
47635;SDS011;33364;50.766;15.338;2022-08-19T13:26:01;44.30;;;15.50;;
47635;SDS011;33364;50.766;15.338;2022-08-19T13:28:30;27.15;;;12.85;;
47635;SDS011;33364;50.766;15.338;2022-08-19T13:31:17;16.88;;;11.68;;
47635;SDS011;33364;50.766;15.338;2022-08-19T13:34:02;18.65;;;13.20;;
47635;SDS011;33364;50.766;15.338;2022-08-19T13:36:28;14.82;;;11.93;;
47635;SDS011;33364;50.766;15.338;2022-08-19T13:38:54;14.85;;;12.00;;
47635;SDS011;33364;50.766;15.338;2022-08-19T13:41:21;13.23;;;11.80;;
47635;SDS011;33364;50.766;15.338;2022-08-19T13:43:47;14.25;;;11.20;;
47635;SDS011;33364;50.766;15.338;2022-08-19T13:46:14;16.77;;;12.07;;
47635;SDS011;33364;50.766;15.338;2022-08-19T13:48:40;16.48;;;12.23;;
47635;SDS011;33364;50.766;15.338;2022-08-19T13:51:07;12.85;;;11.52;;
47635;SDS011;33364;50.766;15.338;2022-08-19T13:53:36;13.95;;;11.55;;
47635;SDS011;33364;50.766;15.338;2022-08-19T13:56:06;12.32;;;10.98;;
47635;SDS011;33364;50.766;15.338;2022-08-19T13:58:33;11.80;;;10.77;;
47635;SDS011;33364;50.766;15.338;2022-08-19T14:00:59;12.82;;;10.32;;
47635;SDS011;33364;50.766;15.338;2022-08-19T14:03:25;14.20;;;11.27;;
47635;SDS011;33364;50.766;15.338;2022-08-19T14:05:51;13.45;;;12.05;;
47635;SDS011;33364;50.766;15.338;2022-08-19T14:08:17;11.57;;;10.38;;
47635;SDS011;33364;50.766;15.338;2022-08-19T14:10:43;13.82;;;11.65;;
47635;SDS011;33364;50.766;15.338;2022-08-19T14:13:10;18.00;;;11.57;;
47635;SDS011;33364;50.766;15.338;2022-08-19T14:15:38;14.10;;;12.23;;
47635;SDS011;33364;50.766;15.338;2022-08-19T14:18:03;13.52;;;11.30;;
47635;SDS011;33364;50.766;15.338;2022-08-19T14:20:29;12.07;;;10.50;;
47635;SDS011;33364;50.766;15.338;2022-08-19T14:22:55;13.45;;;11.88;;
47635;SDS011;33364;50.766;15.338;2022-08-19T14:25:24;15.15;;;10.82;;
47635;SDS011;33364;50.766;15.338;2022-08-19T14:27:52;13.60;;;11.52;;
47635;SDS011;33364;50.766;15.338;2022-08-19T14:30:22;13.27;;;11.15;;
47635;SDS011;33364;50.766;15.338;2022-08-19T14:32:56;16.35;;;11.32;;
47635;SDS011;33364;50.766;15.338;2022-08-19T14:35:24;16.88;;;11.20;;
47635;SDS011;33364;50.766;15.338;2022-08-19T14:37:52;16.52;;;11.38;;
47635;SDS011;33364;50.766;15.338;2022-08-19T14:40:23;14.52;;;11.27;;